createdAt,value
2019-03-24T00:00:44.476Z,80.50
2019-03-24T00:03:11.923Z,81.60
2019-03-24T00:05:39.510Z,81.30
2019-03-24T00:08:07.251Z,81.50
2019-03-24T00:10:34.764Z,81.80
2019-03-24T00:13:02.332Z,81.20
2019-03-24T00:15:29.954Z,80.10
2019-03-24T00:17:57.568Z,80.70
2019-03-24T00:20:25.306Z,80.80
2019-03-24T00:22:52.984Z,81.20
2019-03-24T00:25:20.586Z,81.20
2019-03-24T00:27:48.205Z,80.90
2019-03-24T00:30:17.716Z,81.00
2019-03-24T00:32:45.185Z,80.90
2019-03-24T00:35:14.212Z,81.90
2019-03-24T00:37:41.680Z,81.90
2019-03-24T00:40:09.616Z,82.50
2019-03-24T00:42:37.168Z,82.20
2019-03-24T00:45:04.858Z,82.50
2019-03-24T00:47:32.335Z,83.90
2019-03-24T00:49:59.941Z,84.60
2019-03-24T00:52:27.644Z,83.70
2019-03-24T00:54:55.367Z,84.50
2019-03-24T00:57:22.954Z,85.40
2019-03-24T00:59:50.667Z,85.40
2019-03-24T01:02:18.545Z,85.80
2019-03-24T01:04:46.129Z,85.50
2019-03-24T01:07:13.728Z,85.40
2019-03-24T01:09:41.180Z,85.50
2019-03-24T01:12:08.740Z,85.80
2019-03-24T01:14:36.258Z,86.30
2019-03-24T01:17:03.788Z,86.60
2019-03-24T01:19:31.413Z,86.60
2019-03-24T01:21:58.984Z,86.80
2019-03-24T01:24:26.495Z,86.80
2019-03-24T01:26:54.097Z,86.90
2019-03-24T01:29:21.544Z,86.70
2019-03-24T01:31:49.008Z,86.70
2019-03-24T01:34:16.509Z,86.70
2019-03-24T01:36:44.000Z,87.00
2019-03-24T01:39:11.549Z,87.30
2019-03-24T01:41:39.248Z,87.30
2019-03-24T01:44:06.847Z,87.20
2019-03-24T01:46:34.305Z,87.60
2019-03-24T01:49:01.720Z,87.60
2019-03-24T01:51:29.349Z,87.30
2019-03-24T01:53:56.953Z,87.20
2019-03-24T01:56:24.493Z,87.90
2019-03-24T01:58:52.041Z,88.20
2019-03-24T02:01:19.627Z,89.30
2019-03-24T02:03:47.195Z,89.60
2019-03-24T02:06:15.602Z,90.00
2019-03-24T02:08:43.165Z,90.00
2019-03-24T02:11:10.614Z,90.10
2019-03-24T02:13:38.053Z,90.00
2019-03-24T02:16:09.556Z,90.30
2019-03-24T02:18:34.864Z,90.30
2019-03-24T02:21:02.382Z,90.20
2019-03-24T02:23:29.893Z,90.30
2019-03-24T02:25:57.525Z,90.10
2019-03-24T02:28:25.075Z,90.30
2019-03-24T02:30:52.651Z,90.10
2019-03-24T02:33:20.262Z,90.00
2019-03-24T02:35:47.911Z,90.10
2019-03-24T02:38:15.524Z,90.10
2019-03-24T02:40:42.960Z,90.30
2019-03-24T02:43:10.558Z,90.40
2019-03-24T02:45:38.077Z,90.50
2019-03-24T02:48:05.691Z,90.40
2019-03-24T02:50:33.174Z,90.70
2019-03-24T02:53:00.813Z,90.70
2019-03-24T02:55:28.397Z,90.80
2019-03-24T02:57:56.132Z,91.00
2019-03-24T03:00:23.790Z,90.90
2019-03-24T03:02:51.462Z,91.00
2019-03-24T03:05:19.079Z,91.00
2019-03-24T03:07:46.719Z,91.00
2019-03-24T03:10:14.687Z,91.10
2019-03-24T03:12:42.219Z,91.10
2019-03-24T03:15:10.050Z,91.00
2019-03-24T03:17:37.665Z,91.10
2019-03-24T03:20:06.711Z,91.10
2019-03-24T03:22:34.486Z,91.10
2019-03-24T03:25:02.227Z,91.60
2019-03-24T03:27:29.858Z,91.70
2019-03-24T03:29:57.416Z,91.70
2019-03-24T03:32:24.934Z,91.60
2019-03-24T03:34:52.547Z,91.70
2019-03-24T03:37:20.126Z,91.60
2019-03-24T03:39:47.723Z,92.00
2019-03-24T03:42:15.337Z,91.90
2019-03-24T03:44:42.833Z,91.80
2019-03-24T03:47:10.377Z,91.70
2019-03-24T03:49:38.031Z,91.60
2019-03-24T03:52:05.820Z,91.90
2019-03-24T03:54:33.410Z,92.10
2019-03-24T03:57:01.006Z,92.00
2019-03-24T03:59:28.673Z,92.20
2019-03-24T04:01:56.338Z,92.30
2019-03-24T04:04:24.065Z,92.50
2019-03-24T04:06:51.756Z,92.60
2019-03-24T04:09:19.394Z,92.80
2019-03-24T04:11:47.333Z,92.80
2019-03-24T04:14:14.914Z,92.90
2019-03-24T04:16:42.673Z,93.00
2019-03-24T04:19:10.234Z,92.90
2019-03-24T04:21:37.841Z,92.80
2019-03-24T04:24:05.430Z,93.00
2019-03-24T04:26:33.094Z,92.80
2019-03-24T04:29:00.694Z,92.80
2019-03-24T04:31:28.315Z,92.70
2019-03-24T04:33:55.897Z,92.90
2019-03-24T04:36:23.373Z,92.90
2019-03-24T04:38:50.899Z,92.90
2019-03-24T04:41:18.472Z,92.80
2019-03-24T04:43:45.945Z,93.00
2019-03-24T04:46:13.573Z,93.20
2019-03-24T04:48:41.154Z,93.20
2019-03-24T04:51:08.630Z,93.20
2019-03-24T04:53:36.181Z,93.50
2019-03-24T04:56:03.761Z,93.50
2019-03-24T04:58:31.346Z,93.50
2019-03-24T05:00:58.944Z,93.70
2019-03-24T05:03:26.513Z,93.90
2019-03-24T05:05:54.090Z,94.00
2019-03-24T05:08:22.402Z,94.10
2019-03-24T05:10:49.988Z,94.20
2019-03-24T05:13:17.516Z,94.40
2019-03-24T05:15:44.996Z,94.40
2019-03-24T05:18:15.567Z,94.50
2019-03-24T05:20:43.117Z,94.50
2019-03-24T05:23:10.729Z,94.50
2019-03-24T05:25:38.379Z,94.60
2019-03-24T05:28:05.850Z,94.70
2019-03-24T05:30:33.312Z,94.80
2019-03-24T05:33:00.959Z,94.90
2019-03-24T05:35:28.784Z,94.90
2019-03-24T05:37:56.344Z,94.90
2019-03-24T05:40:23.998Z,94.90
2019-03-24T05:42:51.520Z,94.70
2019-03-24T05:45:19.043Z,94.40
2019-03-24T05:47:46.663Z,94.80
2019-03-24T05:50:14.348Z,95.00
2019-03-24T05:52:41.872Z,94.70
2019-03-24T05:55:09.645Z,94.20
2019-03-24T05:57:37.297Z,94.80
2019-03-24T06:00:06.751Z,94.90
2019-03-24T06:02:34.244Z,95.00
2019-03-24T06:05:01.819Z,95.00
2019-03-24T06:07:29.527Z,94.90
2019-03-24T06:09:56.979Z,94.90
2019-03-24T06:12:24.467Z,94.80
2019-03-24T06:14:52.033Z,94.90
2019-03-24T06:17:19.510Z,94.70
2019-03-24T06:19:47.007Z,94.30
2019-03-24T06:22:14.638Z,94.90
2019-03-24T06:24:42.688Z,94.80
2019-03-24T06:27:10.434Z,94.90
2019-03-24T06:29:38.021Z,94.40
2019-03-24T06:32:06.321Z,94.30
2019-03-24T06:34:33.813Z,94.70
2019-03-24T06:37:01.336Z,94.80
2019-03-24T06:39:28.900Z,95.00
2019-03-24T06:41:56.490Z,94.50
2019-03-24T06:44:24.429Z,94.70
2019-03-24T06:46:52.202Z,94.50
2019-03-24T06:49:20.021Z,94.60
2019-03-24T06:51:47.599Z,94.50
2019-03-24T06:54:15.159Z,94.30
2019-03-24T06:56:42.778Z,94.20
2019-03-24T06:59:10.648Z,94.10
2019-03-24T07:01:38.268Z,94.10
2019-03-24T07:04:05.858Z,94.10
2019-03-24T07:06:34.807Z,94.10
2019-03-24T07:09:04.684Z,94.00
2019-03-24T07:11:32.367Z,93.90
2019-03-24T07:14:00.023Z,94.00
2019-03-24T07:16:27.620Z,93.80
2019-03-24T07:18:55.220Z,93.60
2019-03-24T07:21:22.864Z,93.70
2019-03-24T07:23:50.391Z,93.50
2019-03-24T07:26:19.111Z,93.50
2019-03-24T07:28:46.711Z,93.50
2019-03-24T07:31:14.377Z,92.70
2019-03-24T07:33:41.943Z,92.00
2019-03-24T07:36:09.687Z,91.40
2019-03-24T07:38:37.196Z,90.50
2019-03-24T07:41:04.820Z,90.40
2019-03-24T07:43:32.418Z,90.40
2019-03-24T07:46:00.966Z,90.40
2019-03-24T07:48:28.396Z,90.80
2019-03-24T07:50:55.888Z,90.40
2019-03-24T07:53:23.373Z,90.50
2019-03-24T07:55:51.114Z,90.40
2019-03-24T07:58:18.643Z,89.40
2019-03-24T08:00:46.092Z,88.50
2019-03-24T08:03:13.650Z,87.80
2019-03-24T08:05:41.280Z,87.90
2019-03-24T08:08:08.884Z,88.70
2019-03-24T08:10:36.424Z,89.10
2019-03-24T08:13:04.047Z,88.80
2019-03-24T08:15:31.600Z,89.70
2019-03-24T08:17:59.111Z,89.00
2019-03-24T08:20:26.722Z,89.20
2019-03-24T08:22:54.285Z,89.50
2019-03-24T08:25:21.926Z,89.00
2019-03-24T08:27:50.532Z,89.00
2019-03-24T08:30:50.761Z,88.90
2019-03-24T08:33:18.711Z,87.70
2019-03-24T08:35:46.244Z,86.80
2019-03-24T08:38:13.763Z,86.70
2019-03-24T08:40:41.277Z,86.70
2019-03-24T08:43:08.900Z,85.90
2019-03-24T08:45:36.393Z,85.80
2019-03-24T08:48:03.836Z,86.10
2019-03-24T08:50:31.432Z,85.00
2019-03-24T08:52:58.923Z,85.70
2019-03-24T08:55:26.349Z,85.60
2019-03-24T08:57:53.896Z,86.20
2019-03-24T09:00:30.111Z,85.30
2019-03-24T09:02:50.937Z,85.10
2019-03-24T09:05:18.556Z,84.40
2019-03-24T09:07:46.055Z,84.80
2019-03-24T09:10:13.645Z,85.50
2019-03-24T09:12:41.400Z,86.10
2019-03-24T09:15:09.078Z,87.00
2019-03-24T09:17:36.701Z,87.00
2019-03-24T09:20:05.121Z,87.10
2019-03-24T09:22:33.871Z,87.10
2019-03-24T09:25:02.389Z,87.10
2019-03-24T09:27:33.071Z,87.10
2019-03-24T09:30:01.061Z,87.10
2019-03-24T09:32:28.734Z,87.10
2019-03-24T09:34:56.390Z,87.20
2019-03-24T09:37:23.994Z,87.20
2019-03-24T09:39:51.547Z,86.60
2019-03-24T09:42:19.189Z,86.60
2019-03-24T09:44:46.721Z,86.30
2019-03-24T09:47:14.192Z,86.00
2019-03-24T09:49:41.783Z,84.50
2019-03-24T09:52:09.380Z,84.00
2019-03-24T09:54:36.867Z,83.30
2019-03-24T09:57:04.532Z,83.40
2019-03-24T09:59:32.277Z,83.20
2019-03-24T10:02:02.572Z,82.00
2019-03-24T10:04:30.328Z,81.00
2019-03-24T10:06:57.785Z,81.10
2019-03-24T10:09:25.432Z,81.80
2019-03-24T10:11:52.973Z,79.80
2019-03-24T10:14:20.571Z,79.40
2019-03-24T10:16:48.586Z,79.60
2019-03-24T10:19:16.172Z,77.40
2019-03-24T10:21:43.634Z,76.30
2019-03-24T10:24:11.173Z,75.20
2019-03-24T10:26:38.787Z,75.00
2019-03-24T10:29:06.284Z,75.50
2019-03-24T10:31:33.837Z,74.50
2019-03-24T10:34:01.497Z,74.90
2019-03-24T10:36:28.971Z,75.20
2019-03-24T10:38:56.437Z,73.90
2019-03-24T10:41:23.930Z,73.70
2019-03-24T10:43:51.488Z,74.30
2019-03-24T10:46:18.957Z,72.40
2019-03-24T10:48:46.575Z,73.10
2019-03-24T10:51:14.273Z,72.60
2019-03-24T10:53:41.927Z,71.20
2019-03-24T10:56:09.412Z,71.10
2019-03-24T10:58:37.044Z,71.20
2019-03-24T11:01:04.678Z,72.20
2019-03-24T11:03:32.322Z,71.20
2019-03-24T11:05:59.926Z,71.10
2019-03-24T11:08:27.561Z,71.20
2019-03-24T11:10:55.107Z,71.20
2019-03-24T11:13:22.852Z,70.00
2019-03-24T11:15:50.376Z,70.80
2019-03-24T11:18:17.971Z,70.60
2019-03-24T11:20:45.552Z,70.20
2019-03-24T11:23:13.077Z,69.80
2019-03-24T11:25:40.633Z,68.30
2019-03-24T11:28:08.328Z,67.50
2019-03-24T11:30:35.933Z,66.70
2019-03-24T11:33:03.512Z,66.20
2019-03-24T11:35:31.071Z,66.60
2019-03-24T11:37:58.675Z,64.60
2019-03-24T11:40:26.198Z,65.30
2019-03-24T11:42:53.764Z,65.00
2019-03-24T11:45:21.472Z,63.30
2019-03-24T11:47:49.405Z,63.80
2019-03-24T11:50:17.034Z,62.20
2019-03-24T11:52:44.646Z,62.20
2019-03-24T11:55:12.462Z,60.50
2019-03-24T11:57:40.155Z,60.00
2019-03-24T12:00:09.012Z,59.70
2019-03-24T12:02:39.478Z,59.80
2019-03-24T12:05:07.675Z,59.50
2019-03-24T12:07:35.336Z,60.40
2019-03-24T12:10:03.338Z,61.50
2019-03-24T12:12:31.033Z,61.50
2019-03-24T12:14:58.604Z,60.70
2019-03-24T12:17:26.183Z,61.50
2019-03-24T12:19:57.046Z,62.10
2019-03-24T12:22:23.407Z,62.70
2019-03-24T12:24:50.997Z,61.60
2019-03-24T12:27:18.784Z,62.10
2019-03-24T12:29:46.431Z,57.00
2019-03-24T12:32:15.592Z,53.90
2019-03-24T12:34:43.312Z,54.90
2019-03-24T12:37:11.151Z,55.20
2019-03-24T12:39:38.931Z,55.70
2019-03-24T12:42:07.088Z,55.20
2019-03-24T12:44:34.665Z,55.10
2019-03-24T12:47:02.421Z,54.40
2019-03-24T12:49:30.010Z,54.50
2019-03-24T12:51:58.252Z,54.10
2019-03-24T12:54:25.816Z,54.50
2019-03-24T12:56:53.373Z,54.70
2019-03-24T12:59:21.032Z,56.00
2019-03-24T13:01:48.780Z,56.40
2019-03-24T13:04:16.393Z,55.80
2019-03-24T13:06:44.041Z,55.60
2019-03-24T13:09:11.687Z,55.30
2019-03-24T13:11:39.553Z,55.70
2019-03-24T13:14:07.425Z,56.00
2019-03-24T13:16:35.174Z,56.00
2019-03-24T13:19:03.127Z,55.80
2019-03-24T13:21:30.916Z,56.50
2019-03-24T13:23:58.477Z,56.50
2019-03-24T13:26:26.031Z,55.90
2019-03-24T13:28:53.724Z,55.30
2019-03-24T13:31:21.338Z,55.10
2019-03-24T13:33:48.912Z,56.00
2019-03-24T13:36:16.504Z,56.50
2019-03-24T13:38:44.001Z,55.90
2019-03-24T13:41:11.702Z,56.90
2019-03-24T13:43:39.376Z,57.00
2019-03-24T13:46:07.117Z,57.40
2019-03-24T13:48:34.672Z,56.90
2019-03-24T13:51:03.093Z,57.10
2019-03-24T13:53:30.744Z,57.40
2019-03-24T13:55:58.821Z,57.10
2019-03-24T13:58:26.752Z,57.60
2019-03-24T14:00:55.029Z,57.30
2019-03-24T14:03:22.762Z,57.60
2019-03-24T14:05:50.620Z,58.20
2019-03-24T14:08:18.275Z,58.40
2019-03-24T14:10:46.052Z,58.60
2019-03-24T14:13:13.967Z,58.00
2019-03-24T14:15:41.956Z,58.00
2019-03-24T14:18:09.877Z,57.10
2019-03-24T14:20:43.212Z,57.30
2019-03-24T14:23:07.311Z,57.80
2019-03-24T14:25:34.912Z,57.80
2019-03-24T14:28:02.576Z,58.50
2019-03-24T14:30:44.166Z,58.70
2019-03-24T14:33:11.994Z,59.40
2019-03-24T14:35:40.172Z,59.20
2019-03-24T14:38:07.794Z,59.50
2019-03-24T14:40:35.565Z,60.20
2019-03-24T14:43:03.613Z,60.30
2019-03-24T14:45:31.500Z,60.20
2019-03-24T14:48:00.217Z,58.80
2019-03-24T14:50:28.161Z,58.70
2019-03-24T14:52:56.192Z,58.10
2019-03-24T14:55:23.926Z,58.30
2019-03-24T14:57:51.595Z,58.10
2019-03-24T15:00:28.576Z,58.50
2019-03-24T15:02:56.140Z,58.40
2019-03-24T15:05:23.724Z,59.00
2019-03-24T15:07:51.366Z,59.30
2019-03-24T15:10:19.131Z,59.30
2019-03-24T15:12:46.702Z,58.30
2019-03-24T15:15:14.292Z,58.80
2019-03-24T15:17:41.945Z,59.20
2019-03-24T15:20:09.526Z,60.00
2019-03-24T15:22:37.115Z,60.70
2019-03-24T15:25:04.788Z,60.70
2019-03-24T15:27:32.264Z,60.70
2019-03-24T15:30:00.350Z,61.20
2019-03-24T15:32:28.021Z,61.40
2019-03-24T15:34:55.629Z,62.30
2019-03-24T15:37:23.196Z,62.30
2019-03-24T15:39:50.744Z,61.80
2019-03-24T15:42:18.393Z,62.10
2019-03-24T15:44:45.986Z,61.80
2019-03-24T15:47:13.835Z,62.00
2019-03-24T15:49:41.411Z,61.80
2019-03-24T15:52:08.930Z,61.30
2019-03-24T15:54:36.464Z,60.30
2019-03-24T15:57:04.057Z,59.40
2019-03-24T15:59:32.170Z,59.40
2019-03-24T16:02:00.120Z,59.00
2019-03-24T16:04:27.862Z,59.10
2019-03-24T16:06:55.580Z,58.50
2019-03-24T16:09:23.288Z,58.50
2019-03-24T16:11:51.106Z,58.30
2019-03-24T16:14:18.888Z,58.20
2019-03-24T16:16:46.511Z,58.90
2019-03-24T16:19:14.231Z,60.20
2019-03-24T16:21:41.857Z,60.30
2019-03-24T16:24:09.474Z,60.80
2019-03-24T16:26:37.133Z,60.40
2019-03-24T16:29:04.622Z,60.40
2019-03-24T16:31:32.198Z,60.40
2019-03-24T16:33:59.705Z,59.60
2019-03-24T16:36:27.326Z,60.10
2019-03-24T16:39:03.140Z,60.10
2019-03-24T16:41:24.506Z,60.10
2019-03-24T16:43:52.669Z,60.20
2019-03-24T16:46:20.237Z,60.10
2019-03-24T16:48:47.901Z,60.20
2019-03-24T16:51:15.754Z,60.20
2019-03-24T16:53:44.726Z,60.00
2019-03-24T16:56:12.329Z,60.00
2019-03-24T16:58:39.987Z,60.20
2019-03-24T17:01:07.577Z,60.20
2019-03-24T17:03:35.537Z,59.40
2019-03-24T17:06:03.350Z,60.20
2019-03-24T17:08:31.110Z,60.10
2019-03-24T17:10:58.716Z,60.00
2019-03-24T17:13:26.360Z,60.00
2019-03-24T17:15:54.037Z,60.00
2019-03-24T17:18:21.763Z,59.90
2019-03-24T17:20:49.832Z,59.90
2019-03-24T17:23:17.552Z,60.20
2019-03-24T17:25:45.281Z,60.30
2019-03-24T17:28:12.997Z,60.80
2019-03-24T17:30:40.707Z,60.90
2019-03-24T17:33:09.055Z,61.10
2019-03-24T17:35:36.680Z,60.90
2019-03-24T17:38:04.497Z,61.20
2019-03-24T17:40:38.890Z,61.30
2019-03-24T17:43:02.754Z,61.20
2019-03-24T17:45:30.702Z,61.50
2019-03-24T17:47:58.801Z,62.00
2019-03-24T17:50:26.957Z,62.20
2019-03-24T17:52:54.882Z,62.20
2019-03-24T17:55:27.545Z,62.70
2019-03-24T17:57:52.764Z,62.80
2019-03-24T18:00:45.461Z,62.60
2019-03-24T18:03:13.097Z,62.60
2019-03-24T18:05:40.865Z,63.60
2019-03-24T18:08:09.437Z,63.70
2019-03-24T18:10:37.172Z,64.00
2019-03-24T18:13:04.850Z,64.30
2019-03-24T18:15:32.504Z,63.90
2019-03-24T18:17:59.984Z,63.60
2019-03-24T18:20:31.717Z,63.70
2019-03-24T18:22:59.443Z,63.60
2019-03-24T18:25:26.991Z,63.90
2019-03-24T18:27:54.695Z,64.50
2019-03-24T18:30:22.753Z,63.60
2019-03-24T18:32:50.436Z,64.00
2019-03-24T18:35:18.274Z,64.30
2019-03-24T18:37:46.282Z,64.30
2019-03-24T18:40:15.083Z,64.00
2019-03-24T18:42:42.789Z,63.90
2019-03-24T18:45:10.978Z,64.20
2019-03-24T18:47:39.432Z,64.20
2019-03-24T18:50:07.651Z,64.50
2019-03-24T18:52:35.286Z,64.60
2019-03-24T18:55:03.793Z,64.50
2019-03-24T18:57:31.726Z,64.70
2019-03-24T18:59:59.503Z,64.50
2019-03-24T19:02:27.327Z,65.60
2019-03-24T19:04:58.030Z,64.90
2019-03-24T19:07:25.802Z,64.10
2019-03-24T19:09:53.691Z,64.40
2019-03-24T19:12:21.713Z,64.50
2019-03-24T19:14:49.448Z,64.50
2019-03-24T19:17:17.207Z,64.60
2019-03-24T19:19:44.871Z,64.20
2019-03-24T19:22:12.582Z,64.40
2019-03-24T19:24:40.222Z,64.40
2019-03-24T19:27:07.940Z,64.20
2019-03-24T19:29:35.616Z,64.20
2019-03-24T19:32:03.294Z,64.50
2019-03-24T19:34:31.741Z,64.00
2019-03-24T19:36:59.856Z,64.20
2019-03-24T19:39:28.198Z,63.80
2019-03-24T19:41:55.989Z,63.40
2019-03-24T19:44:23.953Z,63.30
2019-03-24T19:46:51.931Z,63.00
2019-03-24T19:49:19.559Z,62.30
2019-03-24T19:51:47.543Z,62.50
2019-03-24T19:54:15.386Z,62.30
2019-03-24T19:56:43.174Z,62.30
2019-03-24T19:59:10.896Z,62.50
2019-03-24T20:01:38.811Z,62.50
2019-03-24T20:04:07.614Z,62.30
2019-03-24T20:06:35.420Z,62.30
2019-03-24T20:09:06.786Z,62.10
2019-03-24T20:11:34.646Z,61.10
2019-03-24T20:14:02.844Z,61.60
2019-03-24T20:16:30.892Z,61.00
2019-03-24T20:19:01.944Z,60.60
2019-03-24T20:21:30.346Z,59.70
2019-03-24T20:23:59.362Z,60.50
2019-03-24T20:26:27.498Z,60.20
2019-03-24T20:28:55.368Z,59.40
2019-03-24T20:31:23.147Z,58.90
2019-03-24T20:33:51.449Z,59.20
2019-03-24T20:36:19.156Z,59.20
2019-03-24T20:38:46.868Z,58.80
2019-03-24T20:41:14.578Z,59.60
2019-03-24T20:43:42.141Z,57.30
2019-03-24T20:46:09.972Z,57.30
2019-03-24T20:48:38.226Z,58.50
2019-03-24T20:51:05.879Z,58.10
2019-03-24T20:53:33.487Z,58.10
2019-03-24T20:56:01.162Z,58.00
2019-03-24T20:58:29.073Z,58.10
2019-03-24T21:00:56.715Z,58.10
2019-03-24T21:03:24.421Z,58.90
2019-03-24T21:05:54.613Z,61.00
2019-03-24T21:08:22.616Z,58.50
2019-03-24T21:10:50.126Z,58.80
2019-03-24T21:13:18.026Z,61.80
2019-03-24T21:15:45.707Z,60.90
2019-03-24T21:18:13.202Z,62.00
2019-03-24T21:20:40.969Z,60.80
2019-03-24T21:23:09.522Z,61.90
2019-03-24T21:25:37.108Z,60.60
2019-03-24T21:28:04.684Z,61.70
2019-03-24T21:30:35.644Z,61.90
2019-03-24T21:33:04.014Z,64.00
2019-03-24T21:35:31.916Z,63.80
2019-03-24T21:37:59.472Z,63.40
2019-03-24T21:40:27.165Z,63.50
2019-03-24T21:42:55.019Z,63.80
2019-03-24T21:45:22.635Z,63.90
2019-03-24T21:47:52.120Z,64.10
2019-03-24T21:50:19.746Z,65.20
2019-03-24T21:52:48.389Z,64.10
2019-03-24T21:55:16.040Z,63.50
2019-03-24T21:57:43.591Z,64.40
2019-03-24T22:00:11.669Z,64.50
2019-03-24T22:02:39.580Z,64.40
2019-03-24T22:05:07.142Z,64.70
2019-03-24T22:07:36.216Z,65.50
2019-03-24T22:10:04.216Z,64.90
2019-03-24T22:12:32.930Z,64.90
2019-03-24T22:15:00.709Z,65.20
2019-03-24T22:17:29.852Z,65.70
2019-03-24T22:19:57.603Z,65.70
2019-03-24T22:22:25.310Z,65.70
2019-03-24T22:24:52.961Z,66.10
2019-03-24T22:27:20.726Z,65.30
2019-03-24T22:29:48.289Z,65.60
2019-03-24T22:32:15.923Z,65.10
2019-03-24T22:34:44.232Z,64.80
2019-03-24T22:37:16.024Z,65.90
2019-03-24T22:39:41.409Z,65.80
2019-03-24T22:42:09.277Z,65.20
2019-03-24T22:44:37.004Z,65.00
2019-03-24T22:47:04.757Z,64.90
2019-03-24T22:49:32.456Z,63.70
2019-03-24T22:52:07.256Z,65.10
2019-03-24T22:54:30.468Z,65.10
2019-03-24T22:56:59.863Z,64.10
2019-03-24T22:59:27.767Z,64.50
2019-03-24T23:01:59.640Z,64.30
2019-03-24T23:04:27.411Z,65.00
2019-03-24T23:06:55.365Z,64.00
2019-03-24T23:09:24.406Z,64.00
2019-03-24T23:11:55.034Z,65.00
2019-03-24T23:14:23.099Z,64.10
2019-03-24T23:16:52.590Z,65.50
2019-03-24T23:19:20.498Z,64.70
2019-03-24T23:21:48.188Z,65.00
2019-03-24T23:24:16.123Z,65.10
2019-03-24T23:26:43.830Z,65.40
2019-03-24T23:29:11.420Z,65.30
2019-03-24T23:31:39.078Z,64.20
2019-03-24T23:34:07.988Z,64.30
2019-03-24T23:36:35.541Z,63.60
2019-03-24T23:39:04.146Z,63.40
2019-03-24T23:41:31.839Z,62.30
2019-03-24T23:43:59.317Z,62.40
2019-03-24T23:46:26.853Z,61.90
2019-03-24T23:48:56.305Z,60.70
2019-03-24T23:51:24.072Z,62.90
2019-03-24T23:53:51.941Z,61.10
2019-03-24T23:56:19.498Z,61.20
2019-03-24T23:58:47.095Z,61.40
